Time;durP1;ratioP1;P1;durP2;ratioP2;P2;SDS_P1;SDS_P2;PMS_P1;PMS_P2;Temp;Humidity;BMP_temperature;BMP_pressure;BME280_temperature;BME280_humidity;BME280_pressure;Samples;Min_cycle;Max_cycle;Signal;HPM_P1;HPM_P2
2022/05/04 00:01:24;;;;;;;11.48;8.60;;;;;;;22.37;52.69;98586.13;1699245;83;25820;-88
2022/05/04 00:03:50;;;;;;;10.72;8.73;;;;;;;22.38;52.66;98592.50;1699340;84;25584;-88
2022/05/04 00:06:16;;;;;;;10.70;8.63;;;;;;;22.37;52.65;98597.30;1699415;84;26227;-88
2022/05/04 00:08:42;;;;;;;10.10;8.78;;;;;;;22.35;52.66;98592.70;1699393;84;25741;-88
2022/05/04 00:11:08;;;;;;;10.75;9.00;;;;;;;22.34;52.66;98593.91;1699120;83;27603;-88
2022/05/04 00:13:35;;;;;;;10.93;9.30;;;;;;;22.35;52.65;98594.09;1699348;83;25464;-88
2022/05/04 00:16:01;;;;;;;10.85;9.15;;;;;;;22.35;52.70;98598.28;1699467;83;25690;-88
2022/05/04 00:18:29;;;;;;;10.63;8.85;;;;;;;22.37;52.63;98602.08;1699273;83;26082;-88
2022/05/04 00:20:55;;;;;;;11.08;8.95;;;;;;;22.36;52.66;98602.66;1699397;84;25630;-88
2022/05/04 00:23:21;;;;;;;11.10;9.30;;;;;;;22.35;52.65;98601.08;1699420;84;27354;-88
2022/05/04 00:25:47;;;;;;;11.35;9.00;;;;;;;22.35;52.60;98608.05;1699314;83;25766;-88
2022/05/04 00:28:13;;;;;;;11.40;9.05;;;;;;;22.34;52.65;98603.67;1692597;83;25759;-88
2022/05/04 00:30:39;;;;;;;9.55;8.55;;;;;;;22.32;52.67;98604.66;1691280;83;26129;-88
2022/05/04 00:33:06;;;;;;;11.10;9.15;;;;;;;22.33;52.65;98611.05;1690479;83;25717;-88
2022/05/04 00:35:33;;;;;;;10.63;8.48;;;;;;;22.33;52.62;98606.86;1690364;84;27442;-88
2022/05/04 00:37:59;;;;;;;11.45;9.53;;;;;;;22.33;52.65;98614.62;1691329;84;25759;-88
2022/05/04 00:40:26;;;;;;;10.08;8.98;;;;;;;22.30;52.60;98610.63;1691503;84;25455;-88
2022/05/04 00:42:52;;;;;;;10.30;8.90;;;;;;;22.29;52.64;98607.65;1691595;84;26656;-88
2022/05/04 00:45:19;;;;;;;12.05;9.25;;;;;;;22.30;52.67;98614.02;1691442;83;25773;-88
2022/05/04 00:47:45;;;;;;;12.13;8.83;;;;;;;22.29;52.63;98611.03;1691390;84;27371;-88
2022/05/04 00:50:12;;;;;;;10.53;8.50;;;;;;;22.29;52.65;98615.22;1691341;84;25464;-88
2022/05/04 00:52:43;;;;;;;11.53;9.28;;;;;;;22.29;52.68;98613.82;1691524;84;25969;-88
2022/05/04 00:55:11;;;;;;;11.45;9.08;;;;;;;22.28;52.68;98611.61;1691489;84;26839;-88
2022/05/04 01:00:28;;;;;;;10.15;8.90;;;;;;;22.27;52.66;98610.61;1691176;84;25602;-88
2022/05/04 01:02:54;;;;;;;13.15;8.78;;;;;;;22.27;52.65;98616.20;1691363;84;25638;-88
2022/05/04 01:05:20;;;;;;;10.78;8.90;;;;;;;22.26;52.66;98615.41;1691523;84;25662;-88
2022/05/04 01:07:47;;;;;;;10.53;9.08;;;;;;;22.25;52.66;98617.98;1691481;84;25985;-88
2022/05/04 01:10:15;;;;;;;10.68;9.08;;;;;;;22.25;52.67;98615.20;1685849;83;25856;-88
2022/05/04 01:12:49;;;;;;;10.88;9.05;;;;;;;22.25;52.68;98618.60;1663207;85;28189;-88
2022/05/04 01:15:18;;;;;;;11.28;9.08;;;;;;;22.25;52.66;98625.58;1663304;85;25671;-88
2022/05/04 01:17:45;;;;;;;11.22;8.65;;;;;;;22.23;52.65;98624.58;1663259;85;25611;-88
2022/05/04 01:20:12;;;;;;;11.10;8.90;;;;;;;22.24;52.66;98629.55;1663207;85;26050;-88
2022/05/04 01:22:39;;;;;;;11.60;9.15;;;;;;;22.24;52.68;98630.94;1663333;85;25769;-88
2022/05/04 01:25:06;;;;;;;11.00;8.90;;;;;;;22.23;52.70;98625.97;1663324;84;28262;-88
2022/05/04 01:27:32;;;;;;;10.25;8.78;;;;;;;22.22;52.67;98628.54;1663201;85;25793;-88
2022/05/04 01:29:59;;;;;;;11.30;9.00;;;;;;;22.21;52.69;98626.14;1663251;85;25489;-88
2022/05/04 01:32:26;;;;;;;11.22;9.08;;;;;;;22.21;52.69;98630.33;1663360;85;26044;-88
2022/05/04 01:34:52;;;;;;;10.72;9.10;;;;;;;22.21;52.68;98635.91;1663287;85;25442;-88
2022/05/04 01:37:18;;;;;;;11.43;9.03;;;;;;;22.19;52.69;98635.72;1663219;85;27425;-88
2022/05/04 01:39:44;;;;;;;10.13;8.90;;;;;;;22.19;52.68;98639.91;1663331;85;25746;-88
2022/05/04 01:42:16;;;;;;;11.05;8.70;;;;;;;22.19;52.71;98632.12;1663219;84;25638;-88
2022/05/04 01:44:45;;;;;;;11.40;9.00;;;;;;;22.19;52.71;98625.14;1662889;86;26865;-88
2022/05/04 01:47:12;;;;;;;10.70;8.43;;;;;;;22.19;52.72;98620.37;1663198;85;25626;-88
2022/05/04 01:49:39;;;;;;;11.30;9.23;;;;;;;22.19;52.70;98620.37;1663334;85;27440;-88
2022/05/04 01:52:06;;;;;;;11.88;8.93;;;;;;;22.17;52.72;98622.74;1663106;84;25698;-88
2022/05/04 01:54:32;;;;;;;10.95;8.58;;;;;;;22.15;52.72;98622.36;1663258;86;25660;-88
2022/05/04 01:56:58;;;;;;;10.65;8.80;;;;;;;22.14;52.74;98618.56;1663270;86;26084;-88
2022/05/04 01:59:24;;;;;;;10.75;9.10;;;;;;;22.13;52.79;98623.95;1663373;85;25600;-88
2022/05/04 02:01:51;;;;;;;11.03;9.10;;;;;;;22.14;52.79;98617.95;1663360;85;27407;-88
2022/05/04 02:04:18;;;;;;;10.15;8.63;;;;;;;22.15;52.74;98623.75;1663250;84;25174;-88
2022/05/04 02:06:45;;;;;;;11.45;9.05;;;;;;;22.13;52.77;98614.97;1663225;85;25731;-88
2022/05/04 02:09:11;;;;;;;12.13;9.45;;;;;;;22.14;52.75;98617.17;1663171;85;26001;-88
2022/05/04 02:11:37;;;;;;;11.43;8.95;;;;;;;22.13;52.80;98616.36;1663147;85;25450;-88
2022/05/04 02:14:04;;;;;;;11.95;9.18;;;;;;;22.14;52.76;98624.14;1663239;85;27433;-88
2022/05/04 02:16:31;;;;;;;12.23;8.88;;;;;;;22.13;52.77;98618.38;1663288;85;25882;-88
2022/05/04 02:18:58;;;;;;;10.78;8.98;;;;;;;22.12;52.74;98623.14;1663286;85;25603;-88
2022/05/04 02:21:25;;;;;;;11.60;9.28;;;;;;;22.12;52.82;98618.95;1663301;85;26882;-88
2022/05/04 02:23:51;;;;;;;10.60;9.03;;;;;;;22.13;52.76;98625.34;1663319;85;25611;-88
2022/05/04 02:26:17;;;;;;;11.60;9.03;;;;;;;22.11;52.78;98620.75;1663252;85;27461;-88
2022/05/04 02:28:43;;;;;;;10.72;8.90;;;;;;;22.10;52.79;98617.77;1663169;84;25843;-88
2022/05/04 02:31:10;;;;;;;11.03;8.80;;;;;;;22.09;52.83;98619.74;1663296;85;25174;-88
2022/05/04 02:33:36;;;;;;;10.72;8.88;;;;;;;22.09;52.81;98621.72;1663320;85;26808;-88
2022/05/04 02:38:48;;;;;;;9.85;8.65;;;;;;;22.09;52.83;98624.52;1662979;86;25664;-88
2022/05/04 02:41:14;;;;;;;11.75;9.43;;;;;;;22.08;52.83;98629.31;1663180;85;25489;-88
2022/05/04 02:43:40;;;;;;;11.83;8.93;;;;;;;22.09;52.82;98630.91;1663220;85;25440;-88
2022/05/04 02:46:19;;;;;;;10.98;8.88;;;;;;;22.08;52.84;98632.11;1663289;85;26016;-88
2022/05/04 02:48:46;;;;;;;11.05;8.80;;;;;;;22.06;52.84;98632.50;1662370;85;25595;-88
2022/05/04 02:51:12;;;;;;;10.63;8.73;;;;;;;22.08;52.81;98633.50;1663155;85;27391;-88
2022/05/04 02:53:39;;;;;;;11.45;9.00;;;;;;;22.08;52.84;98629.91;1663206;85;25925;-88
2022/05/04 02:56:06;;;;;;;10.38;8.75;;;;;;;22.09;52.80;98636.48;1663144;85;25638;-88
2022/05/04 02:58:33;;;;;;;10.35;8.78;;;;;;;22.09;52.81;98642.66;1662977;85;26097;-88
2022/05/04 03:04:03;;;;;;;10.68;8.90;;;;;;;22.08;52.83;98649.44;1663070;86;29851;-88
2022/05/04 03:06:30;;;;;;;12.05;8.95;;;;;;;22.07;52.83;98652.81;1663344;85;25644;-88
2022/05/04 03:08:55;;;;;;;10.00;8.40;;;;;;;22.06;52.83;98654.01;1663098;86;25670;-88
2022/05/04 03:14:09;;;;;;;11.43;9.03;;;;;;;22.04;52.84;98661.38;1662957;86;25682;-88
2022/05/04 03:16:36;;;;;;;10.63;8.68;;;;;;;22.05;52.83;98666.38;1663049;85;27510;-88
2022/05/04 03:19:04;;;;;;;10.63;9.05;;;;;;;22.03;52.88;98674.33;1663038;86;25630;-88
2022/05/04 03:21:30;;;;;;;9.95;8.55;;;;;;;22.04;52.88;98668.94;1662990;85;25706;-88
2022/05/04 03:23:57;;;;;;;11.15;8.50;;;;;;;22.03;52.86;98662.58;1663083;85;26056;-88
2022/05/04 03:26:24;;;;;;;11.12;9.05;;;;;;;22.03;52.86;98663.97;1663307;86;25587;-88
2022/05/04 03:28:51;;;;;;;10.80;8.60;;;;;;;22.02;52.85;98660.18;1662928;85;27485;-88
2022/05/04 03:31:17;;;;;;;11.20;8.90;;;;;;;22.01;52.86;98666.93;1663151;85;25829;-88
2022/05/04 03:33:49;;;;;;;10.50;8.98;;;;;;;22.00;52.93;98671.73;1663192;85;25758;-88
2022/05/04 03:36:18;;;;;;;11.20;9.08;;;;;;;21.99;52.91;98670.73;1663280;86;26720;-88
2022/05/04 03:38:51;;;;;;;11.50;8.65;;;;;;;21.99;52.92;98677.09;1662899;84;25611;-88
2022/05/04 03:41:24;;;;;;;10.93;9.20;;;;;;;21.99;52.94;98673.52;1663198;85;27599;-88
2022/05/04 03:43:53;;;;;;;10.82;9.10;;;;;;;21.99;52.92;98675.69;1662619;85;25643;-88
2022/05/04 03:46:30;;;;;;;11.03;9.05;;;;;;;21.99;52.95;98672.91;1663399;85;25474;-88
2022/05/04 03:49:01;;;;;;;11.28;8.83;;;;;;;22.00;52.94;98676.50;1662891;85;26921;-88
2022/05/04 03:51:28;;;;;;;10.72;8.75;;;;;;;21.98;52.98;98671.31;1663265;85;25410;-88
2022/05/04 03:53:54;;;;;;;10.98;8.70;;;;;;;21.96;52.97;98672.29;1662904;85;27422;-88
2022/05/04 03:56:21;;;;;;;10.98;9.43;;;;;;;21.97;52.99;98675.30;1663170;85;25433;-88
2022/05/04 03:58:47;;;;;;;10.60;9.05;;;;;;;21.96;52.98;98672.91;1663225;85;25690;-88
2022/05/04 04:01:14;;;;;;;10.80;8.65;;;;;;;21.96;53.01;98677.87;1663200;85;26002;-88
2022/05/04 04:03:41;;;;;;;10.25;8.43;;;;;;;21.98;52.99;98676.08;1663260;84;25484;-88
2022/05/04 04:06:07;;;;;;;10.50;8.35;;;;;;;21.98;53.00;98686.66;1663066;84;27563;-88
2022/05/04 04:08:32;;;;;;;10.50;8.58;;;;;;;21.98;52.98;98688.64;1663109;85;25692;-88
2022/05/04 04:10:59;;;;;;;10.70;8.95;;;;;;;21.97;53.02;98687.05;1663131;85;25773;-88
2022/05/04 04:13:25;;;;;;;11.00;8.78;;;;;;;21.97;53.03;98700.41;1663167;85;26010;-88
2022/05/04 04:15:51;;;;;;;10.70;8.70;;;;;;;21.98;53.00;98694.22;1663230;85;25706;-88
2022/05/04 04:18:23;;;;;;;11.00;8.63;;;;;;;21.98;53.02;98693.63;1663054;85;27454;-88
2022/05/04 04:23:35;;;;;;;11.57;9.03;;;;;;;21.96;52.99;98694.61;1662919;86;25604;-88
2022/05/04 04:26:04;;;;;;;10.60;8.60;;;;;;;21.95;53.03;98691.63;1663104;84;25989;-88
2022/05/04 04:28:31;;;;;;;10.35;8.58;;;;;;;21.94;53.04;98695.00;1663285;84;25731;-88
2022/05/04 04:30:57;;;;;;;10.08;8.75;;;;;;;21.94;53.04;98698.41;1663238;85;27371;-88
2022/05/04 04:33:26;;;;;;;10.93;8.63;;;;;;;21.96;53.05;98704.98;1663141;84;25660;-88
2022/05/04 04:35:53;;;;;;;10.23;8.80;;;;;;;21.94;53.06;98696.39;1662881;85;25466;-88
2022/05/04 04:38:19;;;;;;;12.03;9.18;;;;;;;21.94;53.05;98703.98;1661948;84;25531;-88
2022/05/04 04:40:46;;;;;;;9.98;8.45;;;;;;;21.93;53.07;98707.94;1665714;84;25950;-88
2022/05/04 04:43:12;;;;;;;11.28;9.20;;;;;;;21.92;53.07;98708.55;1672526;84;28239;-88
2022/05/04 04:45:38;;;;;;;12.15;9.13;;;;;;;21.90;53.12;98710.11;1673655;85;25816;-88
2022/05/04 04:48:05;;;;;;;10.32;8.65;;;;;;;21.91;53.11;98718.09;1680129;84;25586;-88
2022/05/04 04:50:31;;;;;;;11.68;9.10;;;;;;;21.91;53.13;98715.30;1679875;85;26038;-88
2022/05/04 04:52:57;;;;;;;11.18;8.70;;;;;;;21.92;53.11;98720.30;1680317;84;25593;-88
2022/05/04 04:55:23;;;;;;;11.20;9.18;;;;;;;21.93;53.11;98724.68;1680161;84;27420;-88
2022/05/04 04:57:49;;;;;;;10.68;8.93;;;;;;;21.92;53.11;98731.45;1680180;85;25806;-88
2022/05/04 05:00:16;;;;;;;10.58;8.90;;;;;;;21.92;53.11;98732.27;1680408;85;25492;-88
2022/05/04 05:02:42;;;;;;;11.33;9.08;;;;;;;21.92;53.14;98739.83;1680119;85;26221;-88
2022/05/04 05:05:09;;;;;;;11.18;8.95;;;;;;;21.93;53.13;98734.45;1680360;84;25643;-88
2022/05/04 05:07:36;;;;;;;11.63;9.43;;;;;;;21.93;53.12;98740.02;1680248;84;27404;-88
2022/05/04 05:10:03;;;;;;;9.95;8.28;;;;;;;21.92;53.13;98742.03;1679769;84;25502;-88
2022/05/04 05:12:29;;;;;;;10.72;8.95;;;;;;;21.93;53.11;98738.63;1690745;83;25571;-88
2022/05/04 05:17:39;;;;;;;12.00;9.18;;;;;;;21.91;53.15;98743.20;1699115;84;25739;-88
2022/05/04 05:20:07;;;;;;;10.13;8.95;;;;;;;21.90;53.19;98743.00;1699597;84;27400;-88
2022/05/04 05:22:33;;;;;;;11.60;9.68;;;;;;;21.91;53.17;98734.05;1699068;84;25670;-88
2022/05/04 05:24:59;;;;;;;13.10;10.32;;;;;;;21.91;53.13;98726.46;1694279;84;25682;-88
2022/05/04 05:27:27;;;;;;;13.65;10.55;;;;;;;21.92;52.98;98722.50;1691565;83;25936;-88
2022/05/04 05:29:53;;;;;;;12.75;10.30;;;;;;;21.93;52.98;98717.70;1669471;84;25550;-88
2022/05/04 05:32:20;;;;;;;13.48;10.43;;;;;;;21.92;52.92;98719.71;1691381;83;27456;-88
2022/05/04 05:34:46;;;;;;;12.75;10.25;;;;;;;21.90;52.88;98724.06;1691399;83;25757;-88
2022/05/04 05:37:13;;;;;;;13.68;11.08;;;;;;;21.87;52.87;98723.45;1691449;84;25662;-88
2022/05/04 05:39:40;;;;;;;12.95;10.10;;;;;;;21.86;52.81;98718.48;1691081;83;26049;-88
2022/05/04 05:42:09;;;;;;;14.18;11.25;;;;;;;21.86;52.80;98717.67;1691462;84;25771;-88
2022/05/04 05:44:36;;;;;;;12.73;10.60;;;;;;;21.84;52.84;98712.48;1691435;84;27384;-88
2022/05/04 05:47:02;;;;;;;16.07;11.33;;;;;;;21.84;52.73;98713.09;1691264;84;25930;-88
2022/05/04 05:49:29;;;;;;;13.35;11.28;;;;;;;21.80;52.78;98709.69;1691356;84;25784;-88
2022/05/04 05:51:55;;;;;;;15.30;11.93;;;;;;;21.80;52.78;98710.27;1691409;83;25674;-88
2022/05/04 05:54:22;;;;;;;14.68;12.23;;;;;;;21.79;52.68;98710.86;1691481;83;25607;-88
2022/05/04 05:56:48;;;;;;;13.80;11.43;;;;;;;21.80;52.50;98717.25;1691525;84;28065;-88
2022/05/04 05:59:15;;;;;;;15.15;11.97;;;;;;;21.77;52.44;98714.65;1690835;83;25750;-88
2022/05/04 06:01:41;;;;;;;16.65;12.60;;;;;;;21.77;52.42;98708.26;1691303;84;25689;-88
2022/05/04 06:04:10;;;;;;;18.42;13.00;;;;;;;21.80;52.35;98717.25;1691150;84;26060;-87
2022/05/04 06:06:37;;;;;;;16.85;13.48;;;;;;;21.78;51.97;98718.22;1691109;83;25397;-86
2022/05/04 06:09:04;;;;;;;16.00;13.72;;;;;;;21.74;51.62;98717.38;1691493;83;27381;-88
2022/05/04 06:11:35;;;;;;;17.67;13.80;;;;;;;21.72;51.38;98715.55;1690628;84;25623;-88
2022/05/04 06:13:58;;;;;;;19.90;15.25;;;;;;;21.68;51.14;98718.34;1662157;85;25488;-88
2022/05/04 06:16:25;;;;;;;22.42;15.40;;;;;;;21.64;51.02;98721.09;1663232;85;25995;-88
2022/05/04 06:18:51;;;;;;;20.02;16.00;;;;;;;21.61;50.74;98721.87;1663379;85;25778;-87
2022/05/04 06:21:17;;;;;;;20.02;16.05;;;;;;;21.58;50.50;98726.82;1663326;86;28064;-88
2022/05/04 06:23:44;;;;;;;19.32;15.68;;;;;;;21.56;50.42;98721.63;1663137;86;25622;-88
2022/05/04 06:26:10;;;;;;;18.82;16.07;;;;;;;21.55;50.28;98720.63;1662765;85;25451;-88
2022/05/04 06:28:36;;;;;;;20.85;16.30;;;;;;;21.55;50.38;98720.04;1663261;85;25988;-88
2022/05/04 06:36:33;;;;;;;20.70;16.62;;;;;;;21.62;50.15;98726.86;1662863;86;25750;-88
2022/05/04 06:38:59;;;;;;;22.65;17.48;;;;;;;21.65;50.22;98729.66;1663119;85;25325;-88
2022/05/04 06:41:25;;;;;;;20.88;16.80;;;;;;;21.67;50.12;98735.66;1663235;86;25987;-88
2022/05/04 06:43:52;;;;;;;21.27;16.67;;;;;;;21.74;50.09;98731.31;1663210;86;25675;-89
2022/05/04 06:46:18;;;;;;;19.12;16.20;;;;;;;21.76;50.19;98728.36;1661015;84;27323;-89
2022/05/04 06:48:45;;;;;;;19.70;16.35;;;;;;;21.78;50.12;98731.58;1662527;86;26036;-89
2022/05/04 06:51:12;;;;;;;20.82;16.23;;;;;;;21.83;50.02;98730.41;1662925;84;25717;-89
2022/05/04 06:53:38;;;;;;;21.27;15.60;;;;;;;21.87;49.95;98733.20;1663073;85;25639;-89
2022/05/04 06:56:05;;;;;;;18.27;15.48;;;;;;;21.91;49.95;98734.05;1663335;85;25583;-89
2022/05/04 06:58:31;;;;;;;22.07;15.68;;;;;;;21.96;49.92;98727.30;1663153;85;27499;-89
2022/05/04 07:00:58;;;;;;;17.65;14.70;;;;;;;22.01;50.04;98731.10;1663171;85;25711;-89
2022/05/04 07:03:24;;;;;;;20.17;15.10;;;;;;;22.08;50.14;98731.75;1663148;85;25675;-88
2022/05/04 07:05:50;;;;;;;17.65;14.05;;;;;;;22.12;50.23;98738.95;1663259;85;26608;-88
2022/05/04 07:08:18;;;;;;;17.75;15.15;;;;;;;22.17;50.36;98733.59;1663215;86;25458;-88
2022/05/04 07:10:44;;;;;;;18.10;14.40;;;;;;;22.23;50.42;98737.61;1662988;86;27521;-89
2022/05/04 07:13:11;;;;;;;19.20;14.63;;;;;;;22.28;50.44;98740.62;1663002;83;25719;-89
2022/05/04 07:15:37;;;;;;;18.07;14.75;;;;;;;22.34;50.37;98739.65;1663017;85;25479;-89
2022/05/04 07:18:04;;;;;;;17.07;14.18;;;;;;;22.38;50.21;98741.85;1663170;86;25990;-89
2022/05/04 07:20:30;;;;;;;16.07;13.85;;;;;;;22.42;49.81;98740.67;1662901;86;25515;-88
2022/05/04 07:22:57;;;;;;;18.35;13.75;;;;;;;22.46;49.79;98746.88;1663161;86;27343;-88
2022/05/04 07:25:23;;;;;;;15.65;13.08;;;;;;;22.50;49.78;98744.89;1663192;86;25628;-88
2022/05/04 07:27:50;;;;;;;14.85;12.93;;;;;;;22.54;49.62;98742.92;1663132;86;25682;-87
2022/05/04 07:30:16;;;;;;;19.52;13.10;;;;;;;22.56;49.32;98739.94;1663181;84;25994;-88
2022/05/04 07:32:42;;;;;;;14.28;11.90;;;;;;;22.59;49.25;98739.77;1663362;84;25407;-88
2022/05/04 07:35:09;;;;;;;16.23;12.98;;;;;;;22.62;49.24;98734.79;1663181;85;27449;-88
2022/05/04 07:37:36;;;;;;;16.30;13.28;;;;;;;22.66;49.36;98737.61;1663069;85;25836;-88
2022/05/04 07:42:47;;;;;;;14.18;12.23;;;;;;;22.68;48.86;98742.18;1662863;86;25494;-89
2022/05/04 07:45:15;;;;;;;13.05;11.55;;;;;;;22.72;48.97;98748.59;1663288;85;25609;-88
2022/05/04 07:47:42;;;;;;;14.85;12.50;;;;;;;22.75;49.05;98749.20;1662840;86;27402;-88
2022/05/04 07:50:17;;;;;;;15.78;12.03;;;;;;;22.80;49.07;98750.81;1662787;85;25677;-89
2022/05/04 07:52:40;;;;;;;;;;;;;;;22.82;48.74;98751.20;1663862;85;26061;-89
2022/05/04 07:55:08;;;;;;;12.20;10.90;;;;;;;22.85;48.44;98752.43;1662988;84;26185;-89
2022/05/04 07:57:35;;;;;;;13.68;11.05;;;;;;;22.87;48.67;98752.81;1662933;85;25776;-89
2022/05/04 08:05:35;;;;;;;11.73;10.48;;;;;;;22.97;48.26;98756.84;1662859;86;25481;-89
2022/05/04 08:08:01;;;;;;;13.75;10.65;;;;;;;23.00;48.16;98761.64;1663119;85;26106;-89
2022/05/04 08:10:28;;;;;;;11.25;9.95;;;;;;;23.04;48.13;98762.44;1663333;85;25674;-89
2022/05/04 08:12:54;;;;;;;12.28;10.55;;;;;;;23.06;48.15;98760.05;1663100;84;28309;-89
2022/05/04 08:15:20;;;;;;;13.25;11.00;;;;;;;23.06;47.60;98758.66;1663174;85;25425;-88
2022/05/04 08:17:47;;;;;;;12.98;10.65;;;;;;;23.06;47.57;98754.47;1663078;86;25621;-89
2022/05/04 08:20:14;;;;;;;13.85;9.75;;;;;;;23.09;47.69;98762.05;1663171;86;25991;-89
2022/05/04 08:22:41;;;;;;;10.82;9.73;;;;;;;23.11;47.63;98763.84;1662901;85;25395;-89
2022/05/04 08:25:07;;;;;;;10.98;9.20;;;;;;;23.13;47.49;98766.23;1663102;84;27546;-89
2022/05/04 08:27:33;;;;;;;12.15;9.30;;;;;;;23.15;47.29;98761.88;1663019;84;25711;-89
2022/05/04 08:30:00;;;;;;;15.20;10.05;;;;;;;23.18;47.41;98761.08;1663194;85;25205;-90
2022/05/04 08:32:30;;;;;;;13.28;9.98;;;;;;;23.19;47.46;98768.26;1663191;85;26621;-89
2022/05/04 08:34:58;;;;;;;10.82;9.15;;;;;;;23.22;47.48;98757.45;1663393;85;25497;-89
2022/05/04 08:37:27;;;;;;;10.18;9.15;;;;;;;23.24;47.47;98761.48;1663347;85;27466;-89
2022/05/04 08:39:55;;;;;;;10.78;9.63;;;;;;;23.26;47.44;98764.66;1659758;84;25709;-88
2022/05/04 08:42:22;;;;;;;11.80;9.85;;;;;;;23.26;47.40;98761.86;1663075;85;25630;-89
2022/05/04 08:44:57;;;;;;;12.85;9.98;;;;;;;23.27;47.30;98761.27;1663109;85;26051;-89
2022/05/04 08:47:28;;;;;;;10.90;9.05;;;;;;;23.27;47.24;98764.88;1663070;85;25650;-89
2022/05/04 08:49:54;;;;;;;12.68;9.25;;;;;;;23.28;47.43;98763.66;1662292;85;27485;-89
2022/05/04 08:52:21;;;;;;;11.25;10.03;;;;;;;23.30;47.20;98761.88;1663129;86;25625;-89
2022/05/04 08:54:50;;;;;;;10.68;9.58;;;;;;;23.33;47.15;98763.06;1663095;85;25709;-89
2022/05/04 08:57:17;;;;;;;11.00;9.23;;;;;;;23.35;47.33;98763.47;1663230;85;26136;-89
2022/05/04 08:59:43;;;;;;;10.75;8.85;;;;;;;23.35;47.33;98767.67;1663031;86;25628;-89
2022/05/04 09:02:11;;;;;;;9.80;8.80;;;;;;;23.36;47.20;98763.08;1663307;85;26831;-89
2022/05/04 09:04:42;;;;;;;10.15;8.63;;;;;;;23.37;47.19;98761.90;1663274;85;25691;-90
2022/05/04 09:07:23;;;;;;;10.72;8.98;;;;;;;23.40;47.06;98753.33;1663227;85;25672;-89
2022/05/04 09:09:52;;;;;;;9.55;8.65;;;;;;;23.42;47.05;98760.70;1663244;85;25950;-89
2022/05/04 09:12:18;;;;;;;9.93;8.78;;;;;;;23.41;47.02;98757.13;1663271;86;25715;-89
2022/05/04 09:14:46;;;;;;;9.93;8.93;;;;;;;23.40;46.91;98755.51;1662896;84;28251;-88
2022/05/04 09:17:17;;;;;;;10.72;8.88;;;;;;;23.40;46.57;98754.11;1663239;85;25719;-89
2022/05/04 09:22:42;;;;;;;9.55;8.55;;;;;;;23.38;46.65;98753.73;1662966;86;25691;-89
2022/05/04 09:25:17;;;;;;;9.85;7.97;;;;;;;23.38;46.58;98750.94;1663269;85;25470;-89
2022/05/04 09:27:48;;;;;;;9.08;8.18;;;;;;;23.39;46.68;98745.53;1662923;85;27378;-89
2022/05/04 09:30:14;;;;;;;;;;;;;;;23.41;46.79;98747.93;1665646;85;25682;-89
2022/05/04 09:32:42;;;;;;;9.45;8.45;;;;;;;23.40;46.71;98742.92;1663283;85;25506;-89
2022/05/04 09:35:16;;;;;;;9.43;8.45;;;;;;;23.37;47.02;98741.52;1663410;86;26457;-89
2022/05/04 09:45:55;;;;;;;9.05;8.08;;;;;;;23.37;47.17;98738.72;1644673;85;25480;-90
2022/05/04 09:48:35;;;;;;;8.35;7.45;;;;;;;23.34;47.31;98733.31;1662927;85;26100;-89
2022/05/04 09:51:07;;;;;;;9.10;7.37;;;;;;;23.37;47.08;98738.72;1662962;85;25633;-89
2022/05/04 09:53:39;;;;;;;8.70;7.80;;;;;;;23.37;47.03;98735.34;1663229;85;27449;-89
2022/05/04 09:56:05;;;;;;;8.30;7.50;;;;;;;23.38;47.07;98730.55;1662949;85;25522;-89
2022/05/04 09:58:32;;;;;;;9.68;7.70;;;;;;;23.36;46.97;98733.72;1663271;84;25639;-90
2022/05/04 10:00:59;;;;;;;9.13;7.60;;;;;;;23.39;46.92;98734.94;1663246;86;26007;-90
2022/05/04 10:03:25;;;;;;;8.18;7.30;;;;;;;23.40;46.57;98728.17;1663053;85;25674;-90
2022/05/04 10:05:54;;;;;;;9.15;8.05;;;;;;;23.38;46.61;98725.77;1663184;84;28235;-89
2022/05/04 10:08:22;;;;;;;8.55;7.65;;;;;;;23.37;46.81;98730.33;1662786;86;25710;-88
2022/05/04 10:10:50;;;;;;;9.38;7.80;;;;;;;23.33;46.89;98726.72;1662912;85;25485;-88
2022/05/04 10:13:19;;;;;;;8.08;7.20;;;;;;;23.33;46.40;98733.12;1668557;83;26009;-89
2022/05/04 10:15:51;;;;;;;11.15;7.45;;;;;;;23.32;46.19;98725.94;1691373;84;25664;-89
2022/05/04 10:18:30;;;;;;;9.20;7.40;;;;;;;23.31;46.04;98722.33;1691540;84;27614;-89
2022/05/04 10:21:05;;;;;;;7.50;6.80;;;;;;;23.30;45.63;98722.73;1691266;83;25478;-89
2022/05/04 10:23:36;;;;;;;10.65;7.78;;;;;;;23.28;45.40;98727.33;1690362;84;25700;-89
2022/05/04 10:26:05;;;;;;;8.45;6.80;;;;;;;23.25;45.33;98730.91;1691419;84;26094;-89
2022/05/04 10:28:36;;;;;;;8.08;6.80;;;;;;;23.24;45.06;98729.91;1691544;84;25408;-89
2022/05/04 10:31:12;;;;;;;7.45;6.72;;;;;;;23.24;44.78;98727.93;1680791;83;28388;-89
2022/05/04 10:33:41;;;;;;;7.65;6.75;;;;;;;23.23;44.41;98732.52;1696028;84;25696;-89
2022/05/04 10:36:20;;;;;;;8.10;7.28;;;;;;;23.23;44.18;98731.90;1677273;84;25525;-90
2022/05/04 10:38:52;;;;;;;7.70;6.92;;;;;;;23.18;44.65;98727.53;1699457;83;26231;-90
2022/05/04 10:41:40;;;;;;;7.85;7.12;;;;;;;23.18;44.52;98730.92;1673731;84;25482;-89
2022/05/04 10:44:10;;;;;;;10.28;6.85;;;;;;;23.17;44.80;98729.33;1698396;84;27588;-89
2022/05/04 10:46:42;;;;;;;7.92;7.12;;;;;;;23.13;44.73;98730.71;1692029;84;25706;-89
2022/05/04 10:49:13;;;;;;;9.53;6.78;;;;;;;23.11;44.77;98731.70;1669435;84;25807;-89
2022/05/04 10:51:44;;;;;;;8.48;6.58;;;;;;;23.08;44.94;98733.89;1690334;84;25809;-89
2022/05/04 10:54:18;;;;;;;7.80;7.10;;;;;;;23.06;44.85;98725.91;1691449;84;25699;-89
2022/05/04 10:56:51;;;;;;;8.98;7.30;;;;;;;23.05;45.04;98720.13;1669639;84;25635;-89
2022/05/04 10:59:26;;;;;;;10.45;6.60;;;;;;;23.06;44.99;98722.33;1691192;84;25693;-89
2022/05/04 11:02:08;;;;;;;7.05;6.35;;;;;;;23.05;44.95;98720.13;1691266;84;25808;-89
2022/05/04 11:04:34;;;;;;;7.30;6.17;;;;;;;23.06;44.73;98716.73;1690605;84;25409;-89
2022/05/04 11:07:08;;;;;;;7.50;6.17;;;;;;;23.05;44.54;98719.31;1691328;83;25460;-90
2022/05/04 11:09:42;;;;;;;7.75;6.40;;;;;;;23.04;44.57;98717.13;1691294;84;27399;-89
2022/05/04 11:12:12;;;;;;;7.22;6.35;;;;;;;23.02;44.18;98725.11;1691417;84;25595;-89
2022/05/04 11:14:39;;;;;;;6.78;5.75;;;;;;;23.01;44.18;98726.90;1673997;83;25717;-90
2022/05/04 11:17:14;;;;;;;8.68;6.25;;;;;;;22.97;44.40;98728.28;1663329;86;26630;-89
2022/05/04 11:19:47;;;;;;;7.92;5.78;;;;;;;22.93;43.87;98728.30;1663058;85;25789;-89
2022/05/04 11:22:16;;;;;;;8.30;6.90;;;;;;;22.91;44.08;98730.67;1662983;85;28287;-89
2022/05/04 11:24:43;;;;;;;8.53;6.30;;;;;;;22.88;43.99;98730.69;1663160;86;25509;-89
2022/05/04 11:27:11;;;;;;;7.42;6.20;;;;;;;22.86;43.92;98729.69;1663241;85;25623;-89
2022/05/04 11:29:38;;;;;;;8.13;5.90;;;;;;;22.87;43.86;98735.47;1662831;86;26850;-89
2022/05/04 11:32:08;;;;;;;6.70;6.00;;;;;;;22.86;43.69;98733.06;1663157;86;25632;-90
2022/05/04 11:34:36;;;;;;;;;;;;;;;22.83;43.53;98733.27;1665774;86;27463;-90
2022/05/04 11:37:06;;;;;;;9.48;6.25;;;;;;;22.83;43.85;98728.27;1663063;86;25652;-89
2022/05/04 11:39:33;;;;;;;8.65;6.10;;;;;;;22.83;44.23;98731.06;1663247;85;25842;-89
2022/05/04 11:42:01;;;;;;;7.28;5.85;;;;;;;22.81;44.45;98734.25;1663147;84;26010;-89
2022/05/04 11:44:39;;;;;;;6.58;5.83;;;;;;;22.80;44.74;98727.08;1663174;85;25671;-89
2022/05/04 11:47:08;;;;;;;5.75;5.15;;;;;;;22.80;44.51;98729.25;1663212;85;27396;-89
2022/05/04 11:49:35;;;;;;;6.30;5.70;;;;;;;22.80;44.22;98737.63;1662833;85;25590;-89
2022/05/04 11:52:04;;;;;;;10.98;6.00;;;;;;;22.78;44.11;98731.66;1661940;86;25616;-89
2022/05/04 11:54:30;;;;;;;7.10;5.55;;;;;;;22.76;43.97;98735.44;1663114;85;25646;-89
2022/05/04 11:56:57;;;;;;;7.72;5.62;;;;;;;22.73;43.97;98726.45;1663238;85;25246;-89
2022/05/04 11:59:31;;;;;;;6.90;6.00;;;;;;;22.70;44.24;98730.03;1662852;85;28254;-89
2022/05/04 12:01:59;;;;;;;7.28;5.83;;;;;;;22.68;44.09;98722.63;1662682;85;25675;-89
2022/05/04 12:04:27;;;;;;;6.67;5.50;;;;;;;22.67;44.02;98726.63;1663320;84;25481;-89
2022/05/04 12:06:54;;;;;;;7.08;5.35;;;;;;;22.67;44.06;98726.63;1662877;85;26112;-89
2022/05/04 12:09:21;;;;;;;7.05;5.72;;;;;;;22.62;44.21;98726.41;1653478;86;25713;-89
2022/05/04 12:11:48;;;;;;;6.05;5.45;;;;;;;22.60;44.24;98723.82;1663178;85;27465;-89